SBRF/REC METAR and TAF weather

Enter ICAO airport designator
Station Type Date Time Source
SBRF METAR 2022/05/25 01:00 UTC NOAA

SBRF 250100Z 22004KT 9999 BKN015 SCT023 BKN046 24/24 Q1015


Station Type Date Time Source
SBRF Decoded METAR 2022/05/25 01:00 UTC NOAA

Recife Aeroporto , Brazil (SBRF) 08-04S 034-51W
May 24, 2022 - 09:00 PM EDT / 2022.05.25 0100 UTC
Wind: from the SW (220 degrees) at 5 MPH (4 KT):0
Visibility: greater than 7 mile(s):0
Sky conditions: mostly cloudy
Temperature: 75 F (24 C)
Dew Point: 75 F (24 C)
Relative Humidity: 100%
Pressure (altimeter): 29.97 in. Hg (1015 hPa)
ob: SBRF 250100Z 22004KT 9999 BKN015 SCT023 BKN046 24/24 Q1015
cycle: 1

Station Type Date Time Source
SBRF TAF 2022/05/24 18:15 UTC NOAA

TAF SBRF 241500Z 2418/2518 16010KT 9999 SCT023 TN24/2507Z TX29/2515Z
BECMG 2500/2502 20005KT SCT015
BECMG 2512/2514 16010KT SCT025
RMK PHD

Example: see airport list